sensor_id;sensor_type;location;lat;lon;timestamp;pressure;altitude;pressure_sealevel;temperature;humidity
44734;BME280;30462;52.446;-1.930;2023-01-30T00:00:18;100595.2695;;;;
44734;BME280;30462;52.446;-1.930;2023-01-30T00:01:19;100601.6758;;;;
44734;BME280;30462;52.446;-1.930;2023-01-30T00:02:18;100600.7695;;;;
44734;BME280;30462;52.446;-1.930;2023-01-30T00:03:18;100597.9609;;;;
44734;BME280;30462;52.446;-1.930;2023-01-30T00:04:18;100600.7891;;;;
44734;BME280;30462;52.446;-1.930;2023-01-30T00:05:18;100606.6797;;;;
44734;BME280;30462;52.446;-1.930;2023-01-30T00:06:19;100610.0156;;;;
44734;BME280;30462;52.446;-1.930;2023-01-30T00:07:18;100613.2031;;;;
44734;BME280;30462;52.446;-1.930;2023-01-30T00:08:18;100609.5391;;;;
44734;BME280;30462;52.446;-1.930;2023-01-30T00:09:18;100609.4453;;;;
44734;BME280;30462;52.446;-1.930;2023-01-30T00:10:18;100608.1016;;;;
44734;BME280;30462;52.446;-1.930;2023-01-30T00:11:18;100611.6172;;;;
44734;BME280;30462;52.446;-1.930;2023-01-30T00:12:18;100610.0508;;;;
44734;BME280;30462;52.446;-1.930;2023-01-30T00:13:18;100605.4023;;;;
44734;BME280;30462;52.446;-1.930;2023-01-30T00:14:18;100598.8789;;;;
44734;BME280;30462;52.446;-1.930;2023-01-30T00:15:18;100603.332;;;;
44734;BME280;30462;52.446;-1.930;2023-01-30T00:16:18;100600.1133;;;;
44734;BME280;30462;52.446;-1.930;2023-01-30T00:17:18;100598.9336;;;;
44734;BME280;30462;52.446;-1.930;2023-01-30T00:18:18;100601.293;;;;
44734;BME280;30462;52.446;-1.930;2023-01-30T00:19:18;100602.0117;;;;
44734;BME280;30462;52.446;-1.930;2023-01-30T00:20:18;100590.5664;;;;
44734;BME280;30462;52.446;-1.930;2023-01-30T00:21:18;100591.0625;;;;
44734;BME280;30462;52.446;-1.930;2023-01-30T00:22:18;100587.1992;;;;
44734;BME280;30462;52.446;-1.930;2023-01-30T00:23:18;100592.4766;;;;
44734;BME280;30462;52.446;-1.930;2023-01-30T00:24:18;100588.5898;;;;
44734;BME280;30462;52.446;-1.930;2023-01-30T00:25:18;100589.5664;;;;
44734;BME280;30462;52.446;-1.930;2023-01-30T00:26:17;100595.2891;;;;
44734;BME280;30462;52.446;-1.930;2023-01-30T00:27:17;100592.0117;;;;
44734;BME280;30462;52.446;-1.930;2023-01-30T00:28:18;100591.1641;;;;
44734;BME280;30462;52.446;-1.930;2023-01-30T00:29:18;100595.4141;;;;
44734;BME280;30462;52.446;-1.930;2023-01-30T00:30:18;100594.2422;;;;
44734;BME280;30462;52.446;-1.930;2023-01-30T00:31:18;100597.8633;;;;
44734;BME280;30462;52.446;-1.930;2023-01-30T00:32:17;100594.5938;;;;
44734;BME280;30462;52.446;-1.930;2023-01-30T00:33:19;100597.2383;;;;
44734;BME280;30462;52.446;-1.930;2023-01-30T00:34:18;100599.6914;;;;
44734;BME280;30462;52.446;-1.930;2023-01-30T00:35:18;100601.1836;;;;
44734;BME280;30462;52.446;-1.930;2023-01-30T00:36:18;100604.1328;;;;
44734;BME280;30462;52.446;-1.930;2023-01-30T00:37:18;100601.293;;;;
44734;BME280;30462;52.446;-1.930;2023-01-30T00:38:18;100603.8633;;;;
44734;BME280;30462;52.446;-1.930;2023-01-30T00:39:18;100599.7773;;;;
44734;BME280;30462;52.446;-1.930;2023-01-30T00:40:18;100597.2656;;;;
44734;BME280;30462;52.446;-1.930;2023-01-30T00:41:18;100595.6328;;;;
44734;BME280;30462;52.446;-1.930;2023-01-30T00:42:18;100601.3867;;;;
44734;BME280;30462;52.446;-1.930;2023-01-30T00:43:19;100596.5547;;;;
44734;BME280;30462;52.446;-1.930;2023-01-30T00:44:18;100603.4375;;;;
44734;BME280;30462;52.446;-1.930;2023-01-30T00:45:18;100599.8281;;;;
44734;BME280;30462;52.446;-1.930;2023-01-30T00:46:21;100598.918;;;;
44734;BME280;30462;52.446;-1.930;2023-01-30T00:47:18;100592.4258;;;;
44734;BME280;30462;52.446;-1.930;2023-01-30T00:48:17;100590.7617;;;;
44734;BME280;30462;52.446;-1.930;2023-01-30T00:49:18;100590.8594;;;;
44734;BME280;30462;52.446;-1.930;2023-01-30T00:50:18;100599.3555;;;;
44734;BME280;30462;52.446;-1.930;2023-01-30T00:51:17;100614.3984;;;;
44734;BME280;30462;52.446;-1.930;2023-01-30T00:52:18;100627.082;;;;
44734;BME280;30462;52.446;-1.930;2023-01-30T00:53:18;100636.0781;;;;
44734;BME280;30462;52.446;-1.930;2023-01-30T00:54:18;100632.5898;;;;
44734;BME280;30462;52.446;-1.930;2023-01-30T00:55:18;100638.3906;;;;
44734;BME280;30462;52.446;-1.930;2023-01-30T00:56:18;100635.1016;;;;
44734;BME280;30462;52.446;-1.930;2023-01-30T00:57:18;100638.8047;;;;
44734;BME280;30462;52.446;-1.930;2023-01-30T00:58:18;100639.8633;;;;
44734;BME280;30462;52.446;-1.930;2023-01-30T00:59:18;100647.6016;;;;
44734;BME280;30462;52.446;-1.930;2023-01-30T01:00:18;100652.1211;;;;
44734;BME280;30462;52.446;-1.930;2023-01-30T01:01:18;100657.1484;;;;
44734;BME280;30462;52.446;-1.930;2023-01-30T01:02:18;100655.582;;;;
44734;BME280;30462;52.446;-1.930;2023-01-30T01:03:18;100654.5156;;;;
44734;BME280;30462;52.446;-1.930;2023-01-30T01:04:17;100659.5117;;;;
44734;BME280;30462;52.446;-1.930;2023-01-30T01:05:18;100650.6758;;;;
44734;BME280;30462;52.446;-1.930;2023-01-30T01:06:18;100659.8125;;;;
44734;BME280;30462;52.446;-1.930;2023-01-30T01:07:18;100659.1758;;;;
44734;BME280;30462;52.446;-1.930;2023-01-30T01:08:18;100658.7422;;;;
44734;BME280;30462;52.446;-1.930;2023-01-30T01:09:18;100650.5469;;;;
44734;BME280;30462;52.446;-1.930;2023-01-30T01:10:18;100650.0742;;;;
44734;BME280;30462;52.446;-1.930;2023-01-30T01:11:18;100650.7109;;;;
44734;BME280;30462;52.446;-1.930;2023-01-30T01:12:18;100651.5742;;;;
44734;BME280;30462;52.446;-1.930;2023-01-30T01:13:18;100648.6484;;;;
44734;BME280;30462;52.446;-1.930;2023-01-30T01:14:18;100651.7539;;;;
44734;BME280;30462;52.446;-1.930;2023-01-30T01:15:18;100654.5781;;;;
44734;BME280;30462;52.446;-1.930;2023-01-30T01:16:18;100653.4609;;;;
44734;BME280;30462;52.446;-1.930;2023-01-30T01:17:18;100647.7813;;;;
44734;BME280;30462;52.446;-1.930;2023-01-30T01:18:17;100644.4961;;;;
44734;BME280;30462;52.446;-1.930;2023-01-30T01:19:18;100644.8477;;;;
44734;BME280;30462;52.446;-1.930;2023-01-30T01:20:18;100644.1016;;;;
44734;BME280;30462;52.446;-1.930;2023-01-30T01:21:18;100655.5508;;;;
44734;BME280;30462;52.446;-1.930;2023-01-30T01:22:18;100652.2109;;;;
44734;BME280;30462;52.446;-1.930;2023-01-30T01:23:17;100648.7539;;;;
44734;BME280;30462;52.446;-1.930;2023-01-30T01:24:18;100648.6289;;;;
44734;BME280;30462;52.446;-1.930;2023-01-30T01:25:18;100651.6797;;;;
44734;BME280;30462;52.446;-1.930;2023-01-30T01:26:18;100655.1797;;;;
44734;BME280;30462;52.446;-1.930;2023-01-30T01:27:18;100644.9961;;;;
44734;BME280;30462;52.446;-1.930;2023-01-30T01:28:18;100649.8281;;;;
44734;BME280;30462;52.446;-1.930;2023-01-30T01:29:18;100648.8008;;;;
44734;BME280;30462;52.446;-1.930;2023-01-30T01:30:18;100647.7227;;;;
44734;BME280;30462;52.446;-1.930;2023-01-30T01:31:18;100656.0977;;;;
44734;BME280;30462;52.446;-1.930;2023-01-30T01:32:18;100650.4102;;;;
44734;BME280;30462;52.446;-1.930;2023-01-30T01:33:18;100656.6836;;;;
44734;BME280;30462;52.446;-1.930;2023-01-30T01:34:18;100651.0391;;;;
44734;BME280;30462;52.446;-1.930;2023-01-30T01:35:18;100649.9102;;;;
44734;BME280;30462;52.446;-1.930;2023-01-30T01:36:18;100653.7422;;;;
44734;BME280;30462;52.446;-1.930;2023-01-30T01:37:18;100655.1172;;;;
44734;BME280;30462;52.446;-1.930;2023-01-30T01:38:18;100655.3281;;;;
44734;BME280;30462;52.446;-1.930;2023-01-30T01:39:18;100658.7656;;;;
44734;BME280;30462;52.446;-1.930;2023-01-30T01:40:19;100654.625;;;;
44734;BME280;30462;52.446;-1.930;2023-01-30T01:41:18;100654.3984;;;;
44734;BME280;30462;52.446;-1.930;2023-01-30T01:42:18;100654.0938;;;;
44734;BME280;30462;52.446;-1.930;2023-01-30T01:43:18;100655.6133;;;;
44734;BME280;30462;52.446;-1.930;2023-01-30T01:44:17;100651.5938;;;;
44734;BME280;30462;52.446;-1.930;2023-01-30T01:45:20;100651.9688;;;;
44734;BME280;30462;52.446;-1.930;2023-01-30T01:46:21;100649.457;;;;
44734;BME280;30462;52.446;-1.930;2023-01-30T01:47:18;100650.0234;;;;
44734;BME280;30462;52.446;-1.930;2023-01-30T01:48:19;100647.7383;;;;
44734;BME280;30462;52.446;-1.930;2023-01-30T01:49:21;100648.6563;;;;
44734;BME280;30462;52.446;-1.930;2023-01-30T01:50:18;100655.5898;;;;
44734;BME280;30462;52.446;-1.930;2023-01-30T01:51:19;100655.0313;;;;
44734;BME280;30462;52.446;-1.930;2023-01-30T01:52:18;100649.6094;;;;
44734;BME280;30462;52.446;-1.930;2023-01-30T01:53:19;100652.7383;;;;
44734;BME280;30462;52.446;-1.930;2023-01-30T01:54:20;100661.7656;;;;
44734;BME280;30462;52.446;-1.930;2023-01-30T01:55:18;100661.9648;;;;
44734;BME280;30462;52.446;-1.930;2023-01-30T01:56:18;100661.1914;;;;
44734;BME280;30462;52.446;-1.930;2023-01-30T01:57:19;100665.1836;;;;
44734;BME280;30462;52.446;-1.930;2023-01-30T01:58:18;100668.6875;;;;
44734;BME280;30462;52.446;-1.930;2023-01-30T01:59:19;100670.5508;;;;
44734;BME280;30462;52.446;-1.930;2023-01-30T02:00:19;100668.3398;;;;
44734;BME280;30462;52.446;-1.930;2023-01-30T02:01:18;100668.707;;;;
44734;BME280;30462;52.446;-1.930;2023-01-30T02:02:18;100672.4375;;;;
44734;BME280;30462;52.446;-1.930;2023-01-30T02:03:18;100673.6914;;;;
44734;BME280;30462;52.446;-1.930;2023-01-30T02:04:17;100675.6055;;;;
44734;BME280;30462;52.446;-1.930;2023-01-30T02:05:18;100677.918;;;;
44734;BME280;30462;52.446;-1.930;2023-01-30T02:06:18;100678.6367;;;;
44734;BME280;30462;52.446;-1.930;2023-01-30T02:07:18;100684.4258;;;;
44734;BME280;30462;52.446;-1.930;2023-01-30T02:08:18;100687.6914;;;;
44734;BME280;30462;52.446;-1.930;2023-01-30T02:09:18;100689.3086;;;;
44734;BME280;30462;52.446;-1.930;2023-01-30T02:10:19;100690.5898;;;;
44734;BME280;30462;52.446;-1.930;2023-01-30T02:11:20;100696.3828;;;;
44734;BME280;30462;52.446;-1.930;2023-01-30T02:12:18;100698.9727;;;;
44734;BME280;30462;52.446;-1.930;2023-01-30T02:13:18;100698.1133;;;;
44734;BME280;30462;52.446;-1.930;2023-01-30T02:14:18;100698.1719;;;;
44734;BME280;30462;52.446;-1.930;2023-01-30T02:15:18;100696.3398;;;;
44734;BME280;30462;52.446;-1.930;2023-01-30T02:16:18;100690.1914;;;;
44734;BME280;30462;52.446;-1.930;2023-01-30T02:17:18;100690.5977;;;;
44734;BME280;30462;52.446;-1.930;2023-01-30T02:18:18;100694.2813;;;;
44734;BME280;30462;52.446;-1.930;2023-01-30T02:19:21;100694.8438;;;;
44734;BME280;30462;52.446;-1.930;2023-01-30T02:20:21;100701.4258;;;;
44734;BME280;30462;52.446;-1.930;2023-01-30T02:31:21;100720.7109;;;;
44734;BME280;30462;52.446;-1.930;2023-01-30T02:32:19;100720.457;;;;
44734;BME280;30462;52.446;-1.930;2023-01-30T02:33:23;100723.668;;;;
44734;BME280;30462;52.446;-1.930;2023-01-30T02:35:22;100726.6797;;;;
44734;BME280;30462;52.446;-1.930;2023-01-30T02:36:20;100723.4531;;;;
44734;BME280;30462;52.446;-1.930;2023-01-30T02:37:25;100724.1602;;;;
44734;BME280;30462;52.446;-1.930;2023-01-30T02:38:24;100726.8398;;;;
44734;BME280;30462;52.446;-1.930;2023-01-30T02:39:24;100722.7109;;;;
44734;BME280;30462;52.446;-1.930;2023-01-30T02:41:20;100723.7852;;;;
44734;BME280;30462;52.446;-1.930;2023-01-30T02:42:20;100722.5742;;;;
44734;BME280;30462;52.446;-1.930;2023-01-30T02:43:23;100725.0664;;;;
44734;BME280;30462;52.446;-1.930;2023-01-30T02:44:22;100716.6055;;;;
44734;BME280;30462;52.446;-1.930;2023-01-30T02:45:21;100726.6367;;;;
44734;BME280;30462;52.446;-1.930;2023-01-30T02:46:21;100721.9883;;;;
44734;BME280;30462;52.446;-1.930;2023-01-30T02:47:20;100716.3906;;;;
44734;BME280;30462;52.446;-1.930;2023-01-30T02:48:19;100724.6953;;;;
44734;BME280;30462;52.446;-1.930;2023-01-30T02:49:20;100723.2656;;;;
44734;BME280;30462;52.446;-1.930;2023-01-30T02:50:19;100722.5;;;;
44734;BME280;30462;52.446;-1.930;2023-01-30T02:51:21;100725.9492;;;;
44734;BME280;30462;52.446;-1.930;2023-01-30T02:52:18;100723.2891;;;;
44734;BME280;30462;52.446;-1.930;2023-01-30T02:53:17;100718.5664;;;;
44734;BME280;30462;52.446;-1.930;2023-01-30T02:54:18;100723.8711;;;;
44734;BME280;30462;52.446;-1.930;2023-01-30T02:55:19;100718.6523;;;;
44734;BME280;30462;52.446;-1.930;2023-01-30T02:56:18;100718.7422;;;;
44734;BME280;30462;52.446;-1.930;2023-01-30T02:57:21;100708.875;;;;
44734;BME280;30462;52.446;-1.930;2023-01-30T02:58:18;100710.1367;;;;
44734;BME280;30462;52.446;-1.930;2023-01-30T02:59:20;100714.3047;;;;
44734;BME280;30462;52.446;-1.930;2023-01-30T03:00:20;100712.4375;;;;
44734;BME280;30462;52.446;-1.930;2023-01-30T03:01:23;100715.668;;;;
44734;BME280;30462;52.446;-1.930;2023-01-30T03:02:21;100713.4414;;;;
44734;BME280;30462;52.446;-1.930;2023-01-30T03:04:22;100716.9141;;;;
44734;BME280;30462;52.446;-1.930;2023-01-30T03:05:21;100716.1367;;;;
44734;BME280;30462;52.446;-1.930;2023-01-30T03:07:25;100722.8281;;;;
44734;BME280;30462;52.446;-1.930;2023-01-30T03:08:22;100717.0117;;;;
44734;BME280;30462;52.446;-1.930;2023-01-30T03:09:19;100718.957;;;;
44734;BME280;30462;52.446;-1.930;2023-01-30T03:10:21;100719.4141;;;;
44734;BME280;30462;52.446;-1.930;2023-01-30T03:11:18;100722.4063;;;;
44734;BME280;30462;52.446;-1.930;2023-01-30T03:12:21;100727.207;;;;
44734;BME280;30462;52.446;-1.930;2023-01-30T03:13:21;100729.1211;;;;
44734;BME280;30462;52.446;-1.930;2023-01-30T03:14:19;100728.7109;;;;
44734;BME280;30462;52.446;-1.930;2023-01-30T03:15:22;100729.6172;;;;
44734;BME280;30462;52.446;-1.930;2023-01-30T03:16:20;100732.2031;;;;
44734;BME280;30462;52.446;-1.930;2023-01-30T03:17:18;100729.6055;;;;
44734;BME280;30462;52.446;-1.930;2023-01-30T03:18:18;100723.1719;;;;
44734;BME280;30462;52.446;-1.930;2023-01-30T03:19:18;100728.4102;;;;
44734;BME280;30462;52.446;-1.930;2023-01-30T03:20:18;100730.1797;;;;
44734;BME280;30462;52.446;-1.930;2023-01-30T03:21:18;100736.0156;;;;
44734;BME280;30462;52.446;-1.930;2023-01-30T03:22:18;100740.5391;;;;
44734;BME280;30462;52.446;-1.930;2023-01-30T03:23:18;100737.2227;;;;
44734;BME280;30462;52.446;-1.930;2023-01-30T03:24:18;100739.8203;;;;
44734;BME280;30462;52.446;-1.930;2023-01-30T03:25:19;100742.4883;;;;
44734;BME280;30462;52.446;-1.930;2023-01-30T03:26:18;100747.1484;;;;
44734;BME280;30462;52.446;-1.930;2023-01-30T03:27:18;100744.8867;;;;
44734;BME280;30462;52.446;-1.930;2023-01-30T03:28:18;100746.2734;;;;
44734;BME280;30462;52.446;-1.930;2023-01-30T03:29:18;100745.5586;;;;
44734;BME280;30462;52.446;-1.930;2023-01-30T03:30:18;100751.7578;;;;
44734;BME280;30462;52.446;-1.930;2023-01-30T03:31:18;100748.9453;;;;
44734;BME280;30462;52.446;-1.930;2023-01-30T03:32:18;100752.9688;;;;
44734;BME280;30462;52.446;-1.930;2023-01-30T03:33:18;100748.6016;;;;
44734;BME280;30462;52.446;-1.930;2023-01-30T03:34:18;100749.5508;;;;
44734;BME280;30462;52.446;-1.930;2023-01-30T03:35:18;100753.1367;;;;
44734;BME280;30462;52.446;-1.930;2023-01-30T03:36:18;100755.1641;;;;
44734;BME280;30462;52.446;-1.930;2023-01-30T03:37:18;100756.9609;;;;
44734;BME280;30462;52.446;-1.930;2023-01-30T03:38:18;100758.6563;;;;
44734;BME280;30462;52.446;-1.930;2023-01-30T03:39:17;100753.7891;;;;
44734;BME280;30462;52.446;-1.930;2023-01-30T03:40:18;100757.2227;;;;
44734;BME280;30462;52.446;-1.930;2023-01-30T03:41:17;100756.9688;;;;
44734;BME280;30462;52.446;-1.930;2023-01-30T03:42:17;100750.293;;;;
44734;BME280;30462;52.446;-1.930;2023-01-30T03:43:18;100758.0977;;;;
44734;BME280;30462;52.446;-1.930;2023-01-30T03:44:19;100758.2188;;;;
44734;BME280;30462;52.446;-1.930;2023-01-30T03:45:18;100759.1797;;;;
44734;BME280;30462;52.446;-1.930;2023-01-30T03:46:17;100757.0117;;;;
44734;BME280;30462;52.446;-1.930;2023-01-30T03:47:18;100751.9414;;;;
44734;BME280;30462;52.446;-1.930;2023-01-30T03:48:18;100761.6211;;;;
44734;BME280;30462;52.446;-1.930;2023-01-30T03:49:18;100760.6289;;;;
44734;BME280;30462;52.446;-1.930;2023-01-30T03:50:18;100764.0977;;;;
44734;BME280;30462;52.446;-1.930;2023-01-30T03:51:18;100776.1836;;;;
44734;BME280;30462;52.446;-1.930;2023-01-30T03:52:18;100766.3594;;;;
44734;BME280;30462;52.446;-1.930;2023-01-30T03:53:17;100764.2656;;;;
44734;BME280;30462;52.446;-1.930;2023-01-30T03:54:18;100775.6719;;;;
44734;BME280;30462;52.446;-1.930;2023-01-30T03:55:17;100774.6055;;;;
44734;BME280;30462;52.446;-1.930;2023-01-30T03:56:18;100775.3984;;;;
44734;BME280;30462;52.446;-1.930;2023-01-30T03:57:18;100778.2188;;;;
44734;BME280;30462;52.446;-1.930;2023-01-30T03:58:18;100774.3086;;;;
44734;BME280;30462;52.446;-1.930;2023-01-30T03:59:18;100774.4453;;;;
44734;BME280;30462;52.446;-1.930;2023-01-30T04:00:18;100777.9844;;;;
44734;BME280;30462;52.446;-1.930;2023-01-30T04:01:17;100780.4063;;;;
44734;BME280;30462;52.446;-1.930;2023-01-30T04:02:18;100781.3086;;;;
44734;BME280;30462;52.446;-1.930;2023-01-30T04:03:18;100776.4727;;;;
44734;BME280;30462;52.446;-1.930;2023-01-30T04:04:18;100781.2461;;;;
44734;BME280;30462;52.446;-1.930;2023-01-30T04:05:18;100788.7656;;;;
44734;BME280;30462;52.446;-1.930;2023-01-30T04:06:17;100796.5977;;;;
44734;BME280;30462;52.446;-1.930;2023-01-30T04:07:18;100792.2852;;;;
44734;BME280;30462;52.446;-1.930;2023-01-30T04:08:18;100795.3594;;;;
44734;BME280;30462;52.446;-1.930;2023-01-30T04:09:18;100797.1719;;;;
44734;BME280;30462;52.446;-1.930;2023-01-30T04:10:18;100799.2188;;;;
44734;BME280;30462;52.446;-1.930;2023-01-30T04:11:18;100796.7266;;;;
44734;BME280;30462;52.446;-1.930;2023-01-30T04:12:18;100795.5625;;;;
44734;BME280;30462;52.446;-1.930;2023-01-30T04:13:18;100803.6875;;;;
44734;BME280;30462;52.446;-1.930;2023-01-30T04:14:17;100803.457;;;;
44734;BME280;30462;52.446;-1.930;2023-01-30T04:15:17;100808.7773;;;;
44734;BME280;30462;52.446;-1.930;2023-01-30T04:16:21;100805.3828;;;;
44734;BME280;30462;52.446;-1.930;2023-01-30T04:17:18;100810.9141;;;;
44734;BME280;30462;52.446;-1.930;2023-01-30T04:18:18;100811.3945;;;;
44734;BME280;30462;52.446;-1.930;2023-01-30T04:19:18;100810.6797;;;;
44734;BME280;30462;52.446;-1.930;2023-01-30T04:20:17;100811.6328;;;;
44734;BME280;30462;52.446;-1.930;2023-01-30T04:21:18;100809.2969;;;;
44734;BME280;30462;52.446;-1.930;2023-01-30T04:22:18;100808.4102;;;;
44734;BME280;30462;52.446;-1.930;2023-01-30T04:23:18;100809.9492;;;;
44734;BME280;30462;52.446;-1.930;2023-01-30T04:24:18;100811.4648;;;;
44734;BME280;30462;52.446;-1.930;2023-01-30T04:25:18;100811.3047;;;;
44734;BME280;30462;52.446;-1.930;2023-01-30T04:26:19;100816.8711;;;;
44734;BME280;30462;52.446;-1.930;2023-01-30T04:27:18;100818.6523;;;;
44734;BME280;30462;52.446;-1.930;2023-01-30T04:28:18;100818.2813;;;;
44734;BME280;30462;52.446;-1.930;2023-01-30T04:29:18;100815.5039;;;;
44734;BME280;30462;52.446;-1.930;2023-01-30T04:30:18;100812.8711;;;;
44734;BME280;30462;52.446;-1.930;2023-01-30T04:31:18;100811.5664;;;;
44734;BME280;30462;52.446;-1.930;2023-01-30T04:32:18;100814.1172;;;;
44734;BME280;30462;52.446;-1.930;2023-01-30T04:33:19;100815.4766;;;;
44734;BME280;30462;52.446;-1.930;2023-01-30T04:34:18;100819.4805;;;;
44734;BME280;30462;52.446;-1.930;2023-01-30T04:35:18;100820.2148;;;;
44734;BME280;30462;52.446;-1.930;2023-01-30T04:36:17;100818.1406;;;;
44734;BME280;30462;52.446;-1.930;2023-01-30T04:37:18;100818.8984;;;;
44734;BME280;30462;52.446;-1.930;2023-01-30T04:38:19;100822.0938;;;;
44734;BME280;30462;52.446;-1.930;2023-01-30T04:39:18;100820.0664;;;;
44734;BME280;30462;52.446;-1.930;2023-01-30T04:40:18;100821.4883;;;;
44734;BME280;30462;52.446;-1.930;2023-01-30T04:41:17;100818.9023;;;;
44734;BME280;30462;52.446;-1.930;2023-01-30T04:42:18;100819.6875;;;;
44734;BME280;30462;52.446;-1.930;2023-01-30T04:43:19;100819.7461;;;;
44734;BME280;30462;52.446;-1.930;2023-01-30T04:44:18;100821.7266;;;;
44734;BME280;30462;52.446;-1.930;2023-01-30T04:45:18;100822.707;;;;
44734;BME280;30462;52.446;-1.930;2023-01-30T04:46:18;100821.6563;;;;
44734;BME280;30462;52.446;-1.930;2023-01-30T04:47:18;100826.418;;;;
44734;BME280;30462;52.446;-1.930;2023-01-30T04:48:18;100824.6875;;;;
44734;BME280;30462;52.446;-1.930;2023-01-30T04:49:18;100829.8516;;;;
44734;BME280;30462;52.446;-1.930;2023-01-30T04:50:18;100828.0859;;;;
44734;BME280;30462;52.446;-1.930;2023-01-30T04:51:18;100830.1719;;;;
44734;BME280;30462;52.446;-1.930;2023-01-30T04:52:18;100834.7969;;;;
44734;BME280;30462;52.446;-1.930;2023-01-30T04:53:18;100838.3008;;;;
44734;BME280;30462;52.446;-1.930;2023-01-30T04:54:17;100840.375;;;;
44734;BME280;30462;52.446;-1.930;2023-01-30T04:55:18;100836.2148;;;;
44734;BME280;30462;52.446;-1.930;2023-01-30T04:56:18;100840.9727;;;;
44734;BME280;30462;52.446;-1.930;2023-01-30T04:57:18;100839.5977;;;;
44734;BME280;30462;52.446;-1.930;2023-01-30T04:58:18;100838.4102;;;;
44734;BME280;30462;52.446;-1.930;2023-01-30T04:59:18;100837.5352;;;;
44734;BME280;30462;52.446;-1.930;2023-01-30T05:00:18;100835.1953;;;;
44734;BME280;30462;52.446;-1.930;2023-01-30T05:01:20;100833.8008;;;;
44734;BME280;30462;52.446;-1.930;2023-01-30T05:02:17;100832.6016;;;;
44734;BME280;30462;52.446;-1.930;2023-01-30T05:03:18;100831.9688;;;;
44734;BME280;30462;52.446;-1.930;2023-01-30T05:04:18;100831.6875;;;;
44734;BME280;30462;52.446;-1.930;2023-01-30T05:05:18;100830.8047;;;;
44734;BME280;30462;52.446;-1.930;2023-01-30T05:06:18;100833.8672;;;;
44734;BME280;30462;52.446;-1.930;2023-01-30T05:07:18;100842.8203;;;;
44734;BME280;30462;52.446;-1.930;2023-01-30T05:08:17;100843.8555;;;;
44734;BME280;30462;52.446;-1.930;2023-01-30T05:09:18;100844.7852;;;;
44734;BME280;30462;52.446;-1.930;2023-01-30T05:10:18;100842.5898;;;;
44734;BME280;30462;52.446;-1.930;2023-01-30T05:11:18;100845.0898;;;;
44734;BME280;30462;52.446;-1.930;2023-01-30T05:12:18;100840.1953;;;;
44734;BME280;30462;52.446;-1.930;2023-01-30T05:13:17;100838.7148;;;;
44734;BME280;30462;52.446;-1.930;2023-01-30T05:14:18;100835.9961;;;;
44734;BME280;30462;52.446;-1.930;2023-01-30T05:15:18;100841.6563;;;;
44734;BME280;30462;52.446;-1.930;2023-01-30T05:16:18;100840.3398;;;;
44734;BME280;30462;52.446;-1.930;2023-01-30T05:17:18;100848.0469;;;;
44734;BME280;30462;52.446;-1.930;2023-01-30T05:18:18;100846.3164;;;;
44734;BME280;30462;52.446;-1.930;2023-01-30T05:19:18;100849.6406;;;;
44734;BME280;30462;52.446;-1.930;2023-01-30T05:20:18;100849.4805;;;;
44734;BME280;30462;52.446;-1.930;2023-01-30T05:21:19;100852.4531;;;;
44734;BME280;30462;52.446;-1.930;2023-01-30T05:22:18;100852.4531;;;;
44734;BME280;30462;52.446;-1.930;2023-01-30T05:23:18;100853.2031;;;;
44734;BME280;30462;52.446;-1.930;2023-01-30T05:24:18;100851.3203;;;;
44734;BME280;30462;52.446;-1.930;2023-01-30T05:25:18;100852.0391;;;;
44734;BME280;30462;52.446;-1.930;2023-01-30T05:26:18;100852.1133;;;;
44734;BME280;30462;52.446;-1.930;2023-01-30T05:27:18;100850.4688;;;;
44734;BME280;30462;52.446;-1.930;2023-01-30T05:28:18;100850.8164;;;;
44734;BME280;30462;52.446;-1.930;2023-01-30T05:29:18;100851.8438;;;;
44734;BME280;30462;52.446;-1.930;2023-01-30T05:30:18;100850.8555;;;;
44734;BME280;30462;52.446;-1.930;2023-01-30T05:31:18;100853.1445;;;;
44734;BME280;30462;52.446;-1.930;2023-01-30T05:32:18;100853.5781;;;;
44734;BME280;30462;52.446;-1.930;2023-01-30T05:33:18;100859.8516;;;;
44734;BME280;30462;52.446;-1.930;2023-01-30T05:34:18;100861.25;;;;
44734;BME280;30462;52.446;-1.930;2023-01-30T05:35:18;100860.1563;;;;
44734;BME280;30462;52.446;-1.930;2023-01-30T05:36:19;100859.7695;;;;
44734;BME280;30462;52.446;-1.930;2023-01-30T05:37:18;100864.6133;;;;
44734;BME280;30462;52.446;-1.930;2023-01-30T05:38:18;100867.6953;;;;
44734;BME280;30462;52.446;-1.930;2023-01-30T05:39:18;100869.8086;;;;
44734;BME280;30462;52.446;-1.930;2023-01-30T05:40:19;100867.6797;;;;
44734;BME280;30462;52.446;-1.930;2023-01-30T05:41:18;100869.8672;;;;
44734;BME280;30462;52.446;-1.930;2023-01-30T05:42:18;100869.4727;;;;
44734;BME280;30462;52.446;-1.930;2023-01-30T05:43:18;100867.8594;;;;
44734;BME280;30462;52.446;-1.930;2023-01-30T05:44:18;100876.25;;;;
44734;BME280;30462;52.446;-1.930;2023-01-30T05:45:18;100876.3438;;;;
44734;BME280;30462;52.446;-1.930;2023-01-30T05:46:18;100877.1563;;;;
44734;BME280;30462;52.446;-1.930;2023-01-30T05:47:18;100872.5273;;;;
44734;BME280;30462;52.446;-1.930;2023-01-30T05:48:18;100870.5195;;;;
44734;BME280;30462;52.446;-1.930;2023-01-30T05:49:18;100874.0625;;;;
44734;BME280;30462;52.446;-1.930;2023-01-30T05:50:18;100876.1758;;;;
44734;BME280;30462;52.446;-1.930;2023-01-30T05:51:19;100876.6211;;;;
44734;BME280;30462;52.446;-1.930;2023-01-30T05:52:18;100879.2148;;;;
44734;BME280;30462;52.446;-1.930;2023-01-30T05:53:18;100882.7109;;;;
44734;BME280;30462;52.446;-1.930;2023-01-30T05:54:18;100885.1641;;;;
44734;BME280;30462;52.446;-1.930;2023-01-30T05:55:17;100883.9375;;;;
44734;BME280;30462;52.446;-1.930;2023-01-30T05:56:18;100883.0586;;;;
44734;BME280;30462;52.446;-1.930;2023-01-30T05:57:18;100879.7578;;;;
44734;BME280;30462;52.446;-1.930;2023-01-30T05:58:18;100880.9844;;;;
44734;BME280;30462;52.446;-1.930;2023-01-30T05:59:18;100881.043;;;;